Urb Miradero, Puerto Rico
Current Conditions -  °F | °C
As of 8:53 PM on Saturday 22 Nov 2014 (Local Time) from TJNR Reporting Station
Clear Clear  
Wind Chill: 81°   Ceiling: Unl
Heat Index: 85°   Visibility: 10mi
Dew Point: 72°   Wind: 12mph
Humidity: 74%   Direction: 80°E
Pressure: 30.04"   Gusts: NA
Location:  18.1494°N, 65.8294°W
Report Text: TJNR 230053Z AUTO 08010KT 10SM CLR 27/22 A3004 RMK AO2 SLP171 T02720222 $
Loading
Personal Weather Stations






























Interactive Weather Map New forecast layout! Learn more

10-Day Weather Forecast

Advertisements
Track Severe Weather on mobile